Time;durP1;ratioP1;P1;durP2;ratioP2;P2;SDS_P1;SDS_P2;PMS_P1;PMS_P2;Temp;Humidity;BMP_temperature;BMP_pressure;BME280_temperature;BME280_humidity;BME280_pressure;Samples;Min_cycle;Max_cycle;Signal;HPM_P1;HPM_P2
2021/12/28 00:01:33;;;;;;;4.83;4.47;;;11.40;99.90;;;;;;5072459;28;20189;-70
2021/12/28 00:03:59;;;;;;;165.57;91.60;;;11.40;99.90;;;;;;5073637;28;20192;-67
2021/12/28 00:06:25;;;;;;;31.53;20.30;;;11.40;99.90;;;;;;5071996;28;20204;-77
2021/12/28 00:08:50;;;;;;;6.83;6.13;;;11.50;99.90;;;;;;5071688;28;20501;-67
2021/12/28 00:11:16;;;;;;;6.00;5.50;;;11.50;99.90;;;;;;5072044;28;20202;-68
2021/12/28 00:13:43;;;;;;;6.40;5.80;;;11.60;99.90;;;;;;5069953;28;20183;-68
2021/12/28 00:18:45;;;;;;;5.77;5.30;;;11.60;99.90;;;;;;5072608;28;21061;-66
2021/12/28 00:21:10;;;;;;;6.37;5.87;;;11.60;99.90;;;;;;5072799;28;21016;-66
2021/12/28 00:23:40;;;;;;;5.27;4.87;;;11.60;99.90;;;;;;5072047;28;20428;-67
2021/12/28 00:26:11;;;;;;;5.60;5.20;;;11.60;99.90;;;;;;5073009;28;20185;-66
2021/12/28 00:28:37;;;;;;;6.20;5.80;;;11.60;99.90;;;;;;5071391;28;20506;-67
2021/12/28 00:31:04;;;;;;;6.10;5.60;;;11.60;99.90;;;;;;5071862;28;20499;-67
2021/12/28 00:33:30;;;;;;;6.77;6.23;;;11.60;99.90;;;;;;5070763;28;20518;-67
2021/12/28 00:35:55;;;;;;;6.70;6.20;;;11.60;99.90;;;;;;5070683;28;20499;-69
2021/12/28 00:38:24;;;;;;;6.17;5.67;;;11.60;99.90;;;;;;5070646;28;20415;-67
2021/12/28 00:40:58;;;;;;;6.13;5.63;;;11.60;99.90;;;;;;5068193;28;20506;-67
2021/12/28 00:43:25;;;;;;;6.50;5.97;;;11.70;99.90;;;;;;5073214;28;20433;-74
2021/12/28 00:45:51;;;;;;;6.20;5.80;;;11.70;99.90;;;;;;5072969;28;20460;-67
2021/12/28 00:48:17;;;;;;;6.20;5.80;;;11.70;99.90;;;;;;5070343;28;20426;-67
2021/12/28 00:50:44;;;;;;;5.93;5.50;;;11.70;99.90;;;;;;5070664;28;21101;-67
2021/12/28 00:53:10;;;;;;;6.67;6.00;;;11.70;99.90;;;;;;5072392;28;20428;-67
2021/12/28 00:55:36;;;;;;;6.60;6.07;;;11.70;99.90;;;;;;5072052;28;20410;-67
2021/12/28 00:58:02;;;;;;;6.03;5.63;;;11.70;99.90;;;;;;5072624;28;20410;-67
2021/12/28 01:00:30;;;;;;;6.23;5.73;;;11.40;99.90;;;;;;5070335;28;20473;-69
2021/12/28 01:02:58;;;;;;;6.17;5.60;;;11.40;99.90;;;;;;5050498;28;20779;-66
2021/12/28 01:05:24;;;;;;;6.20;5.70;;;11.30;99.90;;;;;;5058897;28;20418;-75
2021/12/28 01:07:50;;;;;;;6.20;5.70;;;11.10;99.90;;;;;;5071419;28;20407;-66
2021/12/28 01:10:21;;;;;;;6.37;5.37;;;11.10;99.90;;;;;;5072048;28;20924;-67
2021/12/28 01:12:52;;;;;;;6.37;5.87;;;11.10;99.90;;;;;;5071468;28;20776;-68
2021/12/28 01:15:19;;;;;;;6.83;6.20;;;11.00;99.90;;;;;;5072358;28;20436;-69
2021/12/28 01:17:46;;;;;;;6.30;5.43;;;10.80;99.90;;;;;;5071123;28;20399;-68
2021/12/28 01:20:13;;;;;;;5.80;5.30;;;10.80;99.90;;;;;;5071803;28;20460;-68
2021/12/28 01:22:39;;;;;;;10.63;5.73;;;10.70;99.90;;;;;;5071668;28;20809;-68
2021/12/28 01:25:07;;;;;;;6.80;6.17;;;10.60;99.90;;;;;;5072508;28;20505;-68
2021/12/28 01:27:36;;;;;;;5.73;5.23;;;10.60;99.90;;;;;;5071507;28;20903;-68
2021/12/28 01:30:05;;;;;;;5.60;5.20;;;10.80;99.90;;;;;;5071816;28;20489;-68
2021/12/28 01:32:31;;;;;;;8.20;5.87;;;10.90;99.90;;;;;;5071573;28;20407;-68
2021/12/28 01:34:56;;;;;;;7.77;5.00;;;11.10;99.90;;;;;;5070833;28;20413;-68
2021/12/28 01:37:22;;;;;;;6.20;5.60;;;11.20;99.90;;;;;;5071623;28;20177;-68
2021/12/28 01:39:48;;;;;;;5.37;4.97;;;11.20;99.90;;;;;;5068721;28;20486;-68
2021/12/28 01:42:14;;;;;;;5.47;4.97;;;11.00;99.90;;;;;;5071762;28;20173;-68
2021/12/28 01:44:39;;;;;;;6.00;5.50;;;10.90;99.90;;;;;;5071421;28;20210;-69
2021/12/28 01:47:05;;;;;;;6.93;4.80;;;11.00;99.90;;;;;;5070692;28;20232;-68
2021/12/28 01:49:31;;;;;;;6.00;5.40;;;10.70;99.90;;;;;;5070631;28;20181;-68
2021/12/28 01:51:57;;;;;;;6.80;5.30;;;10.80;99.90;;;;;;5070495;28;20432;-68
2021/12/28 01:54:23;;;;;;;6.20;5.60;;;10.90;99.90;;;;;;5071954;28;20411;-68
2021/12/28 01:56:49;;;;;;;6.13;5.13;;;11.00;99.90;;;;;;5070780;28;20476;-68
2021/12/28 01:59:18;;;;;;;7.03;5.70;;;11.10;99.90;;;;;;5071407;28;20191;-69
2021/12/28 02:01:45;;;;;;;6.47;5.93;;;11.10;99.90;;;;;;5069880;28;20753;-69
2021/12/28 02:04:14;;;;;;;5.30;4.90;;;11.20;99.90;;;;;;5071528;28;20438;-68
2021/12/28 02:06:40;;;;;;;7.40;5.00;;;11.00;99.90;;;;;;5071224;28;20770;-68
2021/12/28 02:09:06;;;;;;;7.63;5.90;;;11.10;99.90;;;;;;5069859;28;20501;-69
2021/12/28 02:11:32;;;;;;;5.70;5.20;;;11.00;99.90;;;;;;5069419;28;20580;-68
2021/12/28 02:13:58;;;;;;;8.00;5.50;;;10.90;99.90;;;;;;5071671;28;20184;-68
2021/12/28 02:16:24;;;;;;;7.70;5.13;;;10.80;99.90;;;;;;5071990;28;20182;-69
2021/12/28 02:18:50;;;;;;;5.80;5.17;;;11.00;99.90;;;;;;5069103;28;20421;-69
2021/12/28 02:21:16;;;;;;;6.77;4.67;;;10.60;99.90;;;;;;5070215;28;20448;-70
2021/12/28 02:23:41;;;;;;;7.57;4.77;;;10.60;99.90;;;;;;5069493;28;20199;-68
2021/12/28 02:26:08;;;;;;;5.37;4.87;;;10.80;99.90;;;;;;5068653;28;20179;-69
2021/12/28 02:28:34;;;;;;;4.90;4.40;;;10.70;99.90;;;;;;5069788;28;20173;-68
2021/12/28 02:31:00;;;;;;;5.77;4.43;;;10.80;99.90;;;;;;5052408;28;20424;-68
2021/12/28 02:33:26;;;;;;;6.00;4.80;;;10.90;99.90;;;;;;5070481;28;20497;-67
2021/12/28 02:35:55;;;;;;;5.00;4.50;;;11.00;99.90;;;;;;5069360;28;20422;-68
2021/12/28 02:38:21;;;;;;;7.10;4.87;;;10.80;99.90;;;;;;5067415;28;20550;-68
2021/12/28 02:40:46;;;;;;;5.37;4.80;;;10.90;99.90;;;;;;5069691;28;20877;-72
2021/12/28 02:43:15;;;;;;;6.10;4.60;;;10.90;99.90;;;;;;5070195;28;20415;-69
2021/12/28 02:45:57;;;;;;;8.60;4.63;;;10.90;99.90;;;;;;5066373;28;20981;-68
2021/12/28 02:48:24;;;;;;;10.10;4.80;;;10.80;99.90;;;;;;5070076;28;20465;-68
2021/12/28 02:50:54;;;;;;;5.90;5.07;;;10.90;99.90;;;;;;5070427;28;20424;-68
2021/12/28 02:53:21;;;;;;;8.50;4.80;;;10.90;99.90;;;;;;5071622;28;20396;-68
2021/12/28 02:55:48;;;;;;;9.70;5.10;;;10.90;99.90;;;;;;5070747;28;20416;-68
2021/12/28 02:58:37;;;;;;;8.13;5.07;;;10.70;99.90;;;;;;5071273;28;20427;-68
2021/12/28 03:01:25;;;;;;;4.43;3.83;;;10.70;99.90;;;;;;5071879;28;20457;-68
2021/12/28 03:04:05;;;;;;;10.30;5.07;;;10.70;99.90;;;;;;5074109;28;20506;-68
2021/12/28 03:06:32;;;;;;;6.07;4.40;;;10.80;99.90;;;;;;5074913;28;20399;-78
2021/12/28 03:08:59;;;;;;;7.00;4.60;;;10.90;99.90;;;;;;5075091;28;20442;-68
2021/12/28 03:11:28;;;;;;;8.37;4.20;;;11.00;99.90;;;;;;5075054;28;20430;-68
2021/12/28 03:13:57;;;;;;;11.20;4.77;;;11.10;99.90;;;;;;5074451;28;20405;-68
2021/12/28 03:16:25;;;;;;;7.83;4.27;;;11.10;99.90;;;;;;5074363;28;20931;-68
2021/12/28 03:18:50;;;;;;;7.60;4.17;;;11.10;99.90;;;;;;5074351;28;20395;-68
2021/12/28 03:21:19;;;;;;;10.63;5.50;;;11.20;99.90;;;;;;5074439;28;20461;-68
2021/12/28 03:23:45;;;;;;;9.47;4.47;;;11.30;99.90;;;;;;5074055;28;20217;-68
2021/12/28 03:26:12;;;;;;;6.50;4.27;;;11.10;99.90;;;;;;5074779;28;20406;-68
2021/12/28 03:28:39;;;;;;;7.07;4.23;;;11.10;99.90;;;;;;5073970;28;20886;-68
2021/12/28 03:31:07;;;;;;;10.03;4.77;;;11.00;99.90;;;;;;5074885;28;20503;-68
2021/12/28 03:33:36;;;;;;;9.73;4.77;;;11.10;99.90;;;;;;5073607;28;20774;-79
2021/12/28 03:36:03;;;;;;;5.33;4.23;;;11.20;99.90;;;;;;5074963;28;20414;-68
2021/12/28 03:38:29;;;;;;;8.43;3.93;;;11.30;99.90;;;;;;5074625;28;20576;-68
2021/12/28 03:40:55;;;;;;;13.30;5.40;;;11.30;99.90;;;;;;5072594;28;20538;-68
2021/12/28 03:43:21;;;;;;;12.43;4.27;;;11.30;99.90;;;;;;5073007;28;20223;-68
2021/12/28 03:45:48;;;;;;;8.27;4.53;;;11.30;99.90;;;;;;5073242;28;20268;-68
2021/12/28 03:48:14;;;;;;;10.13;4.50;;;11.20;99.90;;;;;;5073130;28;20775;-68
2021/12/28 03:50:40;;;;;;;6.93;3.97;;;11.20;99.90;;;;;;5073465;28;20407;-68
2021/12/28 03:53:07;;;;;;;10.43;4.50;;;11.30;99.90;;;;;;5072477;28;20468;-68
2021/12/28 03:55:34;;;;;;;11.23;4.57;;;11.30;99.90;;;;;;5073496;28;20427;-80
2021/12/28 03:58:00;;;;;;;10.80;4.80;;;11.30;99.90;;;;;;5074184;28;20476;-67
2021/12/28 04:00:29;;;;;;;6.60;3.90;;;11.10;99.90;;;;;;5072976;28;20966;-68
2021/12/28 04:02:55;;;;;;;12.67;5.17;;;11.10;99.90;;;;;;5073045;28;20930;-68
2021/12/28 04:05:21;;;;;;;9.20;4.27;;;11.20;99.90;;;;;;5072560;28;20481;-68
2021/12/28 04:07:47;;;;;;;12.40;4.60;;;11.40;99.90;;;;;;5073088;28;20412;-68
2021/12/28 04:10:15;;;;;;;6.83;4.23;;;11.40;99.90;;;;;;5072488;28;20804;-68
2021/12/28 04:12:42;;;;;;;12.70;4.40;;;11.50;99.90;;;;;;5071308;28;20422;-68
2021/12/28 04:15:12;;;;;;;12.73;4.40;;;11.30;99.90;;;;;;5073800;28;20407;-68
2021/12/28 04:17:38;;;;;;;9.13;4.50;;;11.30;99.90;;;;;;5072696;28;20476;-68
2021/12/28 04:20:12;;;;;;;9.67;4.47;;;11.20;99.90;;;;;;5073542;28;20473;-68
2021/12/28 04:22:38;;;;;;;10.93;4.77;;;11.20;99.90;;;;;;5072951;28;20396;-69
2021/12/28 04:25:06;;;;;;;9.20;4.70;;;11.30;99.90;;;;;;5073379;28;20423;-68
2021/12/28 04:27:32;;;;;;;12.53;4.80;;;11.20;99.90;;;;;;5073499;28;20478;-68
2021/12/28 04:29:58;;;;;;;11.13;4.43;;;11.30;99.90;;;;;;5072814;28;20417;-68
2021/12/28 04:32:24;;;;;;;12.13;4.80;;;11.30;99.90;;;;;;5072816;28;20430;-68
2021/12/28 04:34:50;;;;;;;10.13;4.40;;;11.10;99.90;;;;;;5072540;28;20520;-68
2021/12/28 04:37:16;;;;;;;7.70;3.97;;;11.20;99.90;;;;;;5055266;28;20412;-69
2021/12/28 04:39:42;;;;;;;12.30;4.83;;;11.20;99.90;;;;;;5072401;28;20481;-69
2021/12/28 04:42:08;;;;;;;14.43;5.50;;;11.30;99.90;;;;;;5073068;28;20416;-69
2021/12/28 04:44:34;;;;;;;10.77;5.73;;;11.20;99.90;;;;;;5072492;28;20595;-73
2021/12/28 04:47:00;;;;;;;14.43;4.90;;;11.30;99.90;;;;;;5072060;28;20518;-68
2021/12/28 04:49:27;;;;;;;11.70;5.73;;;11.40;99.90;;;;;;5073104;28;20931;-68
2021/12/28 04:51:53;;;;;;;9.77;4.13;;;11.50;99.90;;;;;;5071925;28;20424;-68
2021/12/28 04:54:20;;;;;;;6.90;4.80;;;11.60;99.90;;;;;;5073377;28;20411;-68
2021/12/28 04:56:46;;;;;;;8.70;5.30;;;11.70;99.90;;;;;;5072079;28;20413;-68
2021/12/28 04:59:14;;;;;;;10.37;5.27;;;11.80;99.90;;;;;;5072307;28;20432;-68
2021/12/28 05:01:40;;;;;;;11.43;5.53;;;11.70;99.90;;;;;;5071822;28;20969;-68
2021/12/28 05:04:05;;;;;;;11.33;5.10;;;11.70;99.90;;;;;;5072550;28;20490;-67
2021/12/28 05:06:34;;;;;;;7.50;4.07;;;11.90;99.90;;;;;;5073079;28;20176;-68
2021/12/28 05:09:01;;;;;;;9.50;4.80;;;11.60;99.90;;;;;;5072397;28;20430;-68
2021/12/28 05:11:26;;;;;;;10.53;4.80;;;11.70;99.90;;;;;;5072686;28;20465;-68
2021/12/28 05:13:52;;;;;;;7.33;4.40;;;11.70;99.90;;;;;;5070347;28;20914;-68
2021/12/28 05:16:18;;;;;;;6.63;4.83;;;11.70;99.90;;;;;;5071414;28;20179;-68
2021/12/28 05:18:44;;;;;;;6.97;4.30;;;11.70;99.90;;;;;;5071704;28;20175;-69
2021/12/28 05:21:10;;;;;;;8.93;5.60;;;11.80;99.90;;;;;;5072226;28;20208;-68
2021/12/28 05:23:35;;;;;;;9.87;5.33;;;11.60;99.90;;;;;;5072228;28;20773;-68
2021/12/28 05:26:01;;;;;;;8.53;5.00;;;11.70;99.90;;;;;;5071018;28;20170;-69
2021/12/28 05:28:27;;;;;;;6.87;5.07;;;11.60;99.90;;;;;;5072775;28;20181;-68
2021/12/28 05:30:53;;;;;;;10.63;5.40;;;11.50;99.90;;;;;;5071942;28;20267;-68
2021/12/28 05:33:19;;;;;;;8.93;5.50;;;11.60;99.90;;;;;;5072418;28;20177;-68
2021/12/28 05:35:44;;;;;;;7.03;5.27;;;11.70;99.90;;;;;;5071580;28;20183;-68
2021/12/28 05:38:12;;;;;;;9.37;5.03;;;11.60;99.90;;;;;;5072136;28;20414;-68
2021/12/28 05:40:38;;;;;;;9.10;5.70;;;11.60;99.90;;;;;;5071864;28;20292;-73
2021/12/28 05:43:04;;;;;;;10.73;7.07;;;11.40;99.90;;;;;;5070461;28;21004;-68
2021/12/28 05:45:30;;;;;;;8.20;5.40;;;11.50;99.90;;;;;;5072109;28;20490;-68
2021/12/28 05:47:56;;;;;;;8.60;5.90;;;11.50;99.90;;;;;;5069978;28;20460;-67
2021/12/28 05:50:22;;;;;;;11.23;6.60;;;11.50;99.90;;;;;;5071109;28;20429;-68
2021/12/28 05:52:47;;;;;;;9.93;6.80;;;11.40;99.90;;;;;;5071287;28;20411;-68
2021/12/28 05:55:13;;;;;;;5.93;5.23;;;11.30;99.90;;;;;;5072020;28;20180;-68
2021/12/28 05:57:39;;;;;;;8.40;7.23;;;11.20;99.90;;;;;;5071841;28;20169;-73
2021/12/28 06:00:08;;;;;;;8.13;5.00;;;11.30;99.90;;;;;;5070748;28;20478;-68
2021/12/28 06:02:34;;;;;;;9.57;5.60;;;11.50;99.90;;;;;;5071723;28;20632;-68
2021/12/28 06:05:00;;;;;;;10.57;6.33;;;11.60;99.90;;;;;;5066104;28;20422;-69
2021/12/28 06:07:27;;;;;;;7.77;4.90;;;11.50;99.90;;;;;;5070475;28;20284;-68
2021/12/28 06:09:56;;;;;;;11.47;8.40;;;11.60;99.90;;;;;;5069828;28;20676;-69
2021/12/28 06:12:23;;;;;;;6.30;4.80;;;11.70;99.90;;;;;;5070306;28;20443;-69
2021/12/28 06:14:50;;;;;;;7.53;4.67;;;11.60;99.90;;;;;;5051556;28;20417;-68
2021/12/28 06:17:16;;;;;;;7.27;5.10;;;11.70;99.90;;;;;;5067882;28;20914;-68
2021/12/28 06:19:42;;;;;;;5.63;4.57;;;11.70;99.90;;;;;;5070634;28;20793;-74
2021/12/28 06:22:08;;;;;;;4.73;4.30;;;11.50;99.90;;;;;;5071319;28;20456;-67
2021/12/28 06:24:33;;;;;;;7.57;4.90;;;11.50;99.90;;;;;;5071839;28;20183;-67
2021/12/28 06:26:59;;;;;;;5.20;4.70;;;11.50;99.90;;;;;;5070689;28;20412;-67
2021/12/28 06:29:25;;;;;;;4.53;4.20;;;11.60;99.90;;;;;;5071548;28;20644;-67
2021/12/28 06:31:51;;;;;;;5.73;3.80;;;11.60;99.90;;;;;;5071097;28;20172;-67
2021/12/28 06:34:17;;;;;;;5.17;4.67;;;11.60;99.90;;;;;;5069846;28;20180;-67
2021/12/28 06:36:43;;;;;;;4.60;4.20;;;11.70;99.90;;;;;;5052916;28;20528;-74
2021/12/28 06:39:10;;;;;;;4.77;4.37;;;11.70;99.90;;;;;;5055600;28;20417;-67
2021/12/28 06:41:38;;;;;;;7.90;4.30;;;11.70;99.90;;;;;;5077844;28;20461;-67
2021/12/28 06:44:05;;;;;;;5.80;3.77;;;11.60;99.90;;;;;;5093378;28;20476;-67
2021/12/28 06:46:31;;;;;;;4.33;3.80;;;11.60;99.90;;;;;;5095395;28;20469;-67
2021/12/28 06:48:56;;;;;;;4.20;3.90;;;11.60;99.90;;;;;;5094951;28;20406;-69
2021/12/28 06:51:22;;;;;;;5.00;3.80;;;11.60;99.90;;;;;;5089416;28;20188;-67
2021/12/28 06:53:48;;;;;;;5.93;3.57;;;11.60;99.90;;;;;;5054623;28;20189;-67
2021/12/28 06:56:14;;;;;;;3.87;3.43;;;11.70;99.90;;;;;;5054965;28;20176;-66
2021/12/28 06:58:40;;;;;;;5.23;3.93;;;11.60;99.90;;;;;;5055250;28;20585;-66
2021/12/28 07:01:07;;;;;;;3.60;3.30;;;11.70;99.90;;;;;;5054613;28;20455;-66
2021/12/28 07:03:32;;;;;;;3.90;3.43;;;11.80;99.90;;;;;;5055233;28;20892;-69
2021/12/28 07:05:59;;;;;;;4.13;3.40;;;11.80;99.90;;;;;;5061150;28;20425;-68
2021/12/28 07:08:25;;;;;;;5.50;3.77;;;11.40;99.90;;;;;;5059508;28;20176;-68
2021/12/28 07:10:52;;;;;;;4.73;3.40;;;11.40;99.90;;;;;;5068262;28;20427;-68
2021/12/28 07:13:18;;;;;;;4.03;3.73;;;11.50;99.90;;;;;;5066326;28;20419;-68
2021/12/28 07:15:43;;;;;;;4.23;3.83;;;11.60;99.90;;;;;;5073914;28;20910;-73
2021/12/28 07:18:09;;;;;;;3.60;3.30;;;11.50;99.90;;;;;;5070576;28;20431;-69
2021/12/28 07:20:36;;;;;;;4.53;3.50;;;11.50;99.90;;;;;;5073835;28;20202;-69
2021/12/28 07:23:02;;;;;;;5.00;4.40;;;11.50;99.90;;;;;;5058328;28;20515;-69
2021/12/28 07:25:29;;;;;;;4.63;3.90;;;11.60;99.90;;;;;;5059579;28;20455;-69
2021/12/28 07:27:55;;;;;;;3.60;3.30;;;11.60;99.90;;;;;;5065065;28;20426;-69
2021/12/28 07:30:21;;;;;;;3.60;3.40;;;11.50;99.90;;;;;;5061486;28;20440;-69
2021/12/28 07:32:47;;;;;;;4.13;3.90;;;11.50;99.90;;;;;;5064944;28;20427;-75
2021/12/28 07:35:13;;;;;;;3.70;3.50;;;11.50;99.90;;;;;;5057793;28;20816;-69
2021/12/28 07:37:39;;;;;;;4.10;3.70;;;11.60;99.90;;;;;;5057433;28;20427;-69
2021/12/28 07:40:07;;;;;;;3.93;3.67;;;11.50;99.90;;;;;;5061469;28;20533;-69
2021/12/28 07:42:35;;;;;;;3.40;3.20;;;11.50;99.90;;;;;;5065795;28;20932;-70
2021/12/28 07:45:02;;;;;;;4.50;3.57;;;11.40;99.90;;;;;;5062305;28;20447;-70
2021/12/28 07:47:28;;;;;;;4.90;4.10;;;11.40;99.90;;;;;;5073131;28;20412;-69
2021/12/28 07:49:54;;;;;;;3.57;3.27;;;11.50;99.90;;;;;;5064755;28;20439;-69
2021/12/28 07:52:19;;;;;;;3.67;3.37;;;11.50;99.90;;;;;;5054659;28;20170;-68
2021/12/28 07:54:45;;;;;;;3.53;3.23;;;11.40;99.90;;;;;;5054818;28;20174;-74
2021/12/28 07:57:11;;;;;;;5.17;4.83;;;11.40;99.90;;;;;;5053376;28;20220;-70
2021/12/28 07:59:36;;;;;;;3.40;3.20;;;11.50;99.90;;;;;;5054135;28;20299;-70
2021/12/28 08:02:02;;;;;;;3.30;3.20;;;11.50;99.90;;;;;;5053011;28;20647;-70
2021/12/28 08:04:28;;;;;;;3.50;3.20;;;11.50;99.90;;;;;;5054028;28;20185;-70
2021/12/28 08:06:55;;;;;;;3.30;3.10;;;11.50;99.90;;;;;;5052836;28;20411;-69
2021/12/28 08:09:21;;;;;;;150.37;94.03;;;11.50;99.90;;;;;;5061715;28;20176;-69
2021/12/28 08:11:46;;;;;;;6.13;5.53;;;11.50;99.90;;;;;;5072537;28;20777;-76
2021/12/28 08:14:12;;;;;;;3.40;3.20;;;11.50;99.90;;;;;;5055204;28;20189;-69
2021/12/28 08:16:38;;;;;;;3.50;3.27;;;11.50;99.90;;;;;;5053809;28;20638;-69
2021/12/28 08:19:06;;;;;;;3.63;3.00;;;11.40;99.90;;;;;;5060232;28;20183;-69
2021/12/28 08:21:33;;;;;;;3.60;3.33;;;11.50;99.90;;;;;;5073464;28;20630;-69
2021/12/28 08:23:59;;;;;;;3.57;3.37;;;11.60;99.90;;;;;;5068525;28;20505;-69
2021/12/28 08:26:24;;;;;;;3.47;3.17;;;11.70;99.90;;;;;;5071198;28;20450;-69
2021/12/28 08:28:50;;;;;;;3.87;3.67;;;11.90;99.90;;;;;;5061750;28;20407;-69
2021/12/28 08:31:16;;;;;;;3.10;3.00;;;11.90;99.90;;;;;;5073736;28;20640;-69
2021/12/28 08:33:42;;;;;;;3.23;3.03;;;11.80;99.90;;;;;;5073058;28;20537;-68
2021/12/28 08:36:07;;;;;;;3.50;3.20;;;11.90;99.90;;;;;;5072408;28;20473;-69
2021/12/28 08:38:33;;;;;;;2.70;2.50;;;12.00;99.90;;;;;;5068951;28;20222;-69
2021/12/28 08:41:00;;;;;;;3.03;2.87;;;12.00;99.90;;;;;;5071693;28;20201;-68
2021/12/28 08:43:26;;;;;;;2.80;2.60;;;12.10;99.90;;;;;;5073319;28;20185;-69
2021/12/28 08:45:52;;;;;;;2.80;2.60;;;12.20;99.90;;;;;;5072516;28;20520;-71
2021/12/28 08:48:18;;;;;;;2.53;2.43;;;12.00;99.90;;;;;;5072016;28;20457;-68
2021/12/28 08:50:44;;;;;;;3.67;3.37;;;11.90;99.90;;;;;;5073151;28;20412;-68
2021/12/28 08:53:10;;;;;;;3.07;2.97;;;11.90;99.90;;;;;;5070424;28;20177;-69
2021/12/28 08:55:37;;;;;;;3.27;3.00;;;12.00;99.90;;;;;;5072810;28;20188;-70
2021/12/28 08:58:03;;;;;;;4.17;3.33;;;12.00;99.90;;;;;;5055889;28;20442;-69
2021/12/28 09:00:31;;;;;;;2.53;2.43;;;11.90;99.90;;;;;;5052551;28;20449;-69
2021/12/28 09:02:58;;;;;;;3.20;3.00;;;11.90;99.90;;;;;;5051815;28;20417;-69
2021/12/28 09:05:26;;;;;;;2.40;2.30;;;12.10;99.90;;;;;;5054721;28;20907;-69
2021/12/28 09:07:54;;;;;;;2.50;2.40;;;12.10;99.90;;;;;;5067948;28;20431;-77
2021/12/28 09:10:20;;;;;;;27.37;19.77;;;12.10;99.90;;;;;;5058614;28;20416;-69
2021/12/28 09:12:46;;;;;;;38.67;26.40;;;12.20;99.90;;;;;;5053735;28;20436;-68
2021/12/28 09:15:13;;;;;;;3.00;2.90;;;12.10;99.90;;;;;;5052336;28;20916;-69
2021/12/28 09:17:40;;;;;;;2.40;2.30;;;12.00;99.90;;;;;;5059045;28;20411;-69
2021/12/28 09:20:10;;;;;;;2.40;2.30;;;12.10;99.90;;;;;;5060257;28;20444;-70
2021/12/28 09:22:36;;;;;;;3.07;2.97;;;12.20;99.90;;;;;;5063782;28;20928;-69
2021/12/28 09:25:03;;;;;;;3.23;3.03;;;12.40;99.90;;;;;;5046211;28;20417;-69
2021/12/28 09:27:29;;;;;;;3.10;3.00;;;12.80;99.90;;;;;;5045911;28;20231;-68
2021/12/28 09:29:54;;;;;;;3.20;3.03;;;13.40;99.90;;;;;;5062688;28;20433;-73
2021/12/28 09:32:20;;;;;;;3.43;3.23;;;14.40;99.90;;;;;;5067844;28;20424;-68
2021/12/28 09:34:50;;;;;;;3.37;3.17;;;15.20;99.90;;;;;;5072323;28;20268;-68
2021/12/28 09:37:16;;;;;;;2.80;2.70;;;15.90;98.00;;;;;;5058162;28;20181;-69
2021/12/28 09:39:41;;;;;;;3.10;2.73;;;16.10;96.70;;;;;;5057864;28;20812;-68
2021/12/28 09:42:07;;;;;;;3.07;2.90;;;16.00;96.60;;;;;;5070949;28;20514;-68
2021/12/28 09:44:34;;;;;;;3.93;2.87;;;15.80;96.90;;;;;;5067555;28;20205;-68
2021/12/28 09:47:01;;;;;;;3.47;3.20;;;15.30;97.40;;;;;;5066552;28;20541;-68
2021/12/28 09:49:28;;;;;;;3.20;3.00;;;14.90;98.40;;;;;;5066398;28;20445;-68
2021/12/28 09:51:58;;;;;;;3.20;2.90;;;14.60;98.90;;;;;;5044891;28;20425;-74
2021/12/28 09:54:26;;;;;;;3.40;3.10;;;14.50;99.80;;;;;;5071318;28;20416;-68
2021/12/28 09:56:54;;;;;;;59.37;40.13;;;14.20;99.90;;;;;;5070957;28;20455;-73
2021/12/28 09:59:20;;;;;;;6.50;5.63;;;14.10;99.90;;;;;;5065514;28;20483;-68
2021/12/28 10:01:46;;;;;;;2.90;2.73;;;14.00;99.90;;;;;;5051880;28;20424;-67
2021/12/28 10:04:11;;;;;;;3.10;2.90;;;14.00;99.90;;;;;;5051221;28;20183;-68
2021/12/28 10:06:37;;;;;;;2.37;2.27;;;14.20;99.90;;;;;;5075174;28;20580;-68
2021/12/28 10:09:04;;;;;;;2.57;2.37;;;14.30;99.90;;;;;;5071015;28;20185;-68
2021/12/28 10:11:38;;;;;;;3.00;2.90;;;14.30;99.90;;;;;;5073719;28;20185;-68
2021/12/28 10:14:14;;;;;;;2.53;2.40;;;14.20;99.90;;;;;;5075585;28;20435;-68
2021/12/28 10:17:05;;;;;;;11.43;4.07;;;14.50;99.90;;;;;;5066069;28;20426;-69
2021/12/28 10:19:44;;;;;;;2.80;2.60;;;15.00;99.70;;;;;;5061433;28;20422;-69
2021/12/28 10:22:32;;;;;;;2.50;2.40;;;15.30;98.90;;;;;;5076534;28;20975;-68
2021/12/28 10:25:01;;;;;;;2.40;2.40;;;15.30;98.20;;;;;;5073447;28;20513;-72
2021/12/28 10:27:29;;;;;;;2.30;2.20;;;15.20;98.50;;;;;;5075510;28;20424;-68
2021/12/28 10:30:01;;;;;;;253.70;186.43;;;14.70;99.20;;;;;;5075331;28;20429;-75
2021/12/28 10:32:28;;;;;;;3.70;3.50;;;14.50;99.80;;;;;;5075905;28;20469;-68
2021/12/28 10:35:12;;;;;;;2.40;2.30;;;14.30;99.90;;;;;;5074701;28;20417;-74
2021/12/28 10:37:41;;;;;;;2.50;2.40;;;14.20;99.90;;;;;;5075791;28;20400;-67
2021/12/28 10:40:12;;;;;;;3.00;2.90;;;14.10;99.90;;;;;;5073823;28;20468;-67
2021/12/28 10:42:57;;;;;;;2.90;2.80;;;14.00;99.90;;;;;;5074803;28;20439;-68
2021/12/28 10:45:26;;;;;;;2.93;2.83;;;13.90;99.90;;;;;;5071990;28;20492;-68
2021/12/28 10:47:53;;;;;;;2.70;2.60;;;13.90;99.90;;;;;;5067520;28;20438;-68
2021/12/28 10:50:20;;;;;;;2.40;2.30;;;13.60;99.90;;;;;;5065841;28;20511;-68
2021/12/28 10:52:50;;;;;;;2.90;2.80;;;13.70;99.90;;;;;;5068249;28;20459;-68
2021/12/28 10:55:26;;;;;;;2.60;2.50;;;13.50;99.90;;;;;;5072037;28;20589;-70
2021/12/28 10:57:53;;;;;;;2.80;2.70;;;13.40;99.90;;;;;;5073817;28;20890;-67
2021/12/28 11:00:33;;;;;;;2.70;2.60;;;13.40;99.90;;;;;;5071176;28;22045;-68
2021/12/28 11:03:16;;;;;;;2.87;2.77;;;13.10;99.90;;;;;;5065252;28;20446;-74
2021/12/28 11:05:47;;;;;;;2.90;2.70;;;13.10;99.90;;;;;;5055091;28;20521;-68
2021/12/28 11:08:14;;;;;;;2.40;2.40;;;13.10;99.90;;;;;;5063358;28;20451;-68
2021/12/28 11:10:47;;;;;;;2.70;2.60;;;13.00;99.90;;;;;;5037742;28;20429;-68
2021/12/28 11:13:14;;;;;;;2.40;2.30;;;13.00;99.90;;;;;;5070634;28;20868;-68
2021/12/28 11:15:46;;;;;;;2.80;2.70;;;12.90;99.90;;;;;;5070448;28;20419;-68
2021/12/28 11:18:31;;;;;;;2.40;2.30;;;12.90;99.90;;;;;;5068246;28;20409;-65
2021/12/28 11:21:00;;;;;;;2.50;2.40;;;12.90;99.90;;;;;;5071124;28;20440;-74
2021/12/28 11:23:29;;;;;;;3.10;2.40;;;12.90;99.90;;;;;;5067117;28;20430;-68
2021/12/28 11:26:08;;;;;;;77.23;48.10;;;13.00;99.90;;;;;;5068367;28;20483;-73
2021/12/28 11:28:35;;;;;;;17.30;14.73;;;13.10;99.90;;;;;;5073895;28;20407;-67
2021/12/28 11:31:04;;;;;;;2.60;2.50;;;13.20;99.90;;;;;;5073903;28;20410;-68
2021/12/28 11:33:51;;;;;;;2.43;2.37;;;13.10;99.90;;;;;;5066366;28;20650;-67
2021/12/28 11:36:21;;;;;;;2.47;2.47;;;13.00;99.90;;;;;;5065159;28;20394;-67
2021/12/28 11:38:47;;;;;;;2.50;2.50;;;12.90;99.90;;;;;;5071476;28;20459;-67
2021/12/28 11:41:13;;;;;;;2.20;2.20;;;13.00;99.90;;;;;;5066306;28;20974;-67
2021/12/28 11:43:41;;;;;;;2.50;2.40;;;13.00;99.90;;;;;;5074053;28;20891;-68
2021/12/28 11:46:08;;;;;;;2.40;2.30;;;12.80;99.90;;;;;;5072844;28;20456;-68
2021/12/28 11:48:35;;;;;;;2.00;2.00;;;12.70;99.90;;;;;;5072184;28;20425;-68
2021/12/28 11:51:01;;;;;;;2.30;2.20;;;12.70;99.90;;;;;;5064931;28;20458;-73
2021/12/28 11:53:28;;;;;;;2.53;2.43;;;12.60;99.90;;;;;;5071438;28;20875;-67
2021/12/28 11:55:58;;;;;;;2.87;2.27;;;12.60;99.90;;;;;;5072776;28;20174;-69
2021/12/28 11:59:01;;;;;;;2.30;2.20;;;12.60;99.90;;;;;;5070422;28;20479;-70
2021/12/28 12:01:52;;;;;;;2.37;2.27;;;12.50;99.90;;;;;;5070696;28;20444;-68
2021/12/28 12:04:30;;;;;;;2.57;2.47;;;12.60;99.90;;;;;;5055185;28;20944;-68
2021/12/28 12:07:05;;;;;;;2.30;2.20;;;12.60;99.90;;;;;;5072298;28;20483;-68
2021/12/28 12:09:32;;;;;;;2.50;2.40;;;12.60;99.90;;;;;;5070905;28;20892;-68
2021/12/28 12:12:11;;;;;;;2.10;2.10;;;12.60;99.90;;;;;;5071681;28;20407;-74
2021/12/28 12:14:57;;;;;;;2.60;2.50;;;12.50;99.90;;;;;;5071890;28;20783;-67
2021/12/28 12:17:29;;;;;;;2.03;1.93;;;12.60;99.90;;;;;;5069392;28;20412;-67
2021/12/28 12:19:55;;;;;;;1.90;1.90;;;12.70;99.90;;;;;;5072190;28;20526;-71
2021/12/28 12:22:30;;;;;;;2.30;2.20;;;12.50;99.90;;;;;;5070014;28;20429;-67
2021/12/28 12:25:01;;;;;;;2.20;2.10;;;12.60;99.90;;;;;;5070997;28;20424;-68
2021/12/28 12:27:48;;;;;;;2.13;2.03;;;12.70;99.90;;;;;;5070670;28;20407;-67
2021/12/28 12:30:23;;;;;;;2.53;2.43;;;12.70;99.90;;;;;;5070786;28;20436;-67
2021/12/28 12:32:58;;;;;;;2.20;2.10;;;12.70;99.90;;;;;;5069386;28;20948;-72
2021/12/28 12:35:46;;;;;;;2.77;2.67;;;12.80;99.90;;;;;;5070498;28;21007;-68
2021/12/28 12:38:12;;;;;;;3.00;2.90;;;12.70;99.90;;;;;;5069473;28;20897;-68
2021/12/28 12:40:51;;;;;;;3.07;2.90;;;12.70;99.90;;;;;;5071832;28;20445;-68
2021/12/28 12:43:17;;;;;;;2.40;2.40;;;12.60;99.90;;;;;;5067263;28;20202;-67
2021/12/28 12:45:55;;;;;;;2.40;2.30;;;12.60;99.90;;;;;;5067650;28;20451;-68
2021/12/28 12:48:35;;;;;;;2.50;2.50;;;12.60;99.90;;;;;;5069408;28;20450;-68
2021/12/28 12:51:19;;;;;;;2.80;2.70;;;12.60;99.90;;;;;;5069877;28;20805;-74
2021/12/28 12:53:54;;;;;;;2.50;2.40;;;12.50;99.90;;;;;;5068759;28;20909;-67